createdAt,value
2022-11-18T00:01:35.726Z,96827.09
2022-11-18T00:03:38.531Z,96830.66
2022-11-18T00:05:40.142Z,96830.97
2022-11-18T00:07:41.738Z,96827.09
2022-11-18T00:09:43.405Z,96820.84
2022-11-18T00:12:03.558Z,96820.84
2022-11-18T00:14:19.774Z,96816.50
2022-11-18T00:16:21.503Z,96818.13
2022-11-18T00:18:22.960Z,96811.84
2022-11-18T00:20:24.969Z,96807.47
2022-11-18T00:22:29.836Z,96811.03
2022-11-18T00:24:32.323Z,96809.38
2022-11-18T00:26:34.117Z,96802.00
2022-11-18T00:28:35.801Z,96802.59
2022-11-18T00:30:37.505Z,96796.03
2022-11-18T00:32:39.054Z,96801.19
2022-11-18T00:34:42.399Z,96800.69
2022-11-18T00:36:45.382Z,96795.53
2022-11-18T00:38:47.126Z,96802.13
2022-11-18T00:40:48.907Z,96804.25
2022-11-18T00:42:53.819Z,96797.13
2022-11-18T00:44:55.460Z,96794.72
2022-11-18T00:46:57.192Z,96807.59
2022-11-18T00:48:58.587Z,96808.72
2022-11-18T00:51:13.561Z,96810.94
2022-11-18T00:53:18.488Z,96802.44
2022-11-18T00:55:22.861Z,96803.75
2022-11-18T00:57:24.647Z,96810.03
2022-11-18T00:59:26.283Z,96808.72
2022-11-18T01:01:28.263Z,96815.78
2022-11-18T01:03:30.903Z,96815.78
2022-11-18T01:05:32.426Z,96813.56
2022-11-18T01:07:34.086Z,96808.09
2022-11-18T01:09:35.784Z,96819.03
2022-11-18T01:11:55.630Z,96823.38
2022-11-18T01:13:57.266Z,96827.22
2022-11-18T01:15:59.132Z,96823.72
2022-11-18T01:18:03.152Z,96829.47
2022-11-18T01:20:07.130Z,96833.34
2022-11-18T01:22:08.774Z,96836.88
2022-11-18T01:24:10.338Z,96834.94
2022-11-18T01:26:13.628Z,96838.00
2022-11-18T01:28:21.973Z,96832.53
2022-11-18T01:30:25.016Z,96830.63
2022-11-18T01:32:28.740Z,96833.63
2022-11-18T01:34:33.833Z,96831.72
2022-11-18T01:36:35.626Z,96834.47
2022-11-18T01:38:37.129Z,96833.34
2022-11-18T01:40:39.753Z,96832.53
2022-11-18T01:42:41.344Z,96830.63
2022-11-18T01:45:09.851Z,96835.06
2022-11-18T01:47:12.557Z,96831.22
2022-11-18T01:49:15.606Z,96830.41
2022-11-18T01:51:33.534Z,96825.25
2022-11-18T01:53:47.121Z,96832.34
2022-11-18T01:55:53.481Z,96827.69
2022-11-18T01:58:11.020Z,96829.91
2022-11-18T02:00:13.803Z,96833.47
2022-11-18T02:02:16.017Z,96829.59
2022-11-18T02:04:18.116Z,96827.69
2022-11-18T02:06:23.229Z,96832.66
2022-11-18T02:08:25.535Z,96831.84
2022-11-18T02:10:27.208Z,96838.94
2022-11-18T02:12:29.876Z,96831.84
2022-11-18T02:14:36.059Z,96835.38
2022-11-18T02:16:41.969Z,96840.88
2022-11-18T02:19:10.235Z,96839.72
2022-11-18T02:21:36.819Z,96835.69
2022-11-18T02:23:57.284Z,96824.75
2022-11-18T02:26:10.735Z,96832.94
2022-11-18T02:28:37.160Z,96835.19
2022-11-18T02:31:02.876Z,96825.06
2022-11-18T02:33:10.213Z,96826.97
2022-11-18T02:35:44.034Z,96826.16
2022-11-18T02:38:11.082Z,96816.03
2022-11-18T02:40:18.891Z,96815.22
2022-11-18T02:42:21.183Z,96812.50
2022-11-18T02:44:26.115Z,96821.84
2022-11-18T02:46:33.073Z,96815.53
2022-11-18T02:48:40.332Z,96830.03
2022-11-18T02:50:44.523Z,96826.97
2022-11-18T02:52:47.828Z,96829.22
2022-11-18T02:54:50.958Z,96833.59
2022-11-18T02:56:54.107Z,96835.50
2022-11-18T02:58:55.769Z,96840.97
2022-11-18T03:01:00.420Z,96829.22
2022-11-18T03:03:27.918Z,96836.13
2022-11-18T03:06:01.875Z,96837.19
2022-11-18T03:08:11.150Z,96837.75
2022-11-18T03:10:12.743Z,96833.38
2022-11-18T03:12:31.340Z,96836.94
2022-11-18T03:15:10.166Z,96838.03
2022-11-18T03:17:25.573Z,96843.81
2022-11-18T03:20:15.299Z,96846.81
2022-11-18T03:22:33.008Z,96849.88
2022-11-18T03:24:38.176Z,96849.06
2022-11-18T03:26:46.004Z,96851.81
2022-11-18T03:29:06.754Z,96852.94
2022-11-18T03:31:26.351Z,96858.09
2022-11-18T03:33:37.913Z,96860.00
2022-11-18T03:35:44.417Z,96862.25
2022-11-18T03:37:50.452Z,96858.09
2022-11-18T03:40:02.087Z,96848.25
2022-11-18T03:42:10.412Z,96849.38
2022-11-18T03:44:18.156Z,96859.50
2022-11-18T03:46:24.607Z,96855.66
2022-11-18T03:48:31.922Z,96861.44
2022-11-18T03:50:39.247Z,96866.91
2022-11-18T03:52:42.023Z,96878.66
2022-11-18T03:54:47.524Z,96873.19
2022-11-18T03:57:20.581Z,96878.16
2022-11-18T03:59:48.215Z,96882.81
2022-11-18T04:01:58.176Z,96879.25
2022-11-18T04:04:00.050Z,96872.69
2022-11-18T04:06:13.622Z,96874.63
2022-11-18T04:08:22.741Z,96881.19
2022-11-18T04:10:27.415Z,96879.25
2022-11-18T04:12:33.069Z,96880.91
2022-11-18T04:14:40.149Z,96881.19
2022-11-18T04:16:43.534Z,96878.97
2022-11-18T04:18:45.139Z,96876.84
2022-11-18T04:20:46.891Z,96885.06
2022-11-18T04:22:48.957Z,96881.19
2022-11-18T04:24:51.088Z,96884.75
2022-11-18T04:26:52.800Z,96888.59
2022-11-18T04:28:54.810Z,96884.25
2022-11-18T04:30:59.400Z,96888.91
2022-11-18T04:33:01.107Z,96884.75
2022-11-18T04:35:03.043Z,96894.06
2022-11-18T04:37:04.901Z,96895.69
2022-11-18T04:39:06.438Z,96896.50
2022-11-18T04:41:08.200Z,96895.69
2022-11-18T04:43:09.737Z,96894.56
2022-11-18T04:45:11.711Z,96892.13
2022-11-18T04:47:13.579Z,96889.38
2022-11-18T04:49:18.169Z,96885.88
2022-11-18T04:51:22.671Z,96887.78
2022-11-18T04:53:24.242Z,96889.09
2022-11-18T04:55:28.475Z,96895.69
2022-11-18T04:57:32.673Z,96898.41
2022-11-18T04:59:34.295Z,96899.53
2022-11-18T05:01:35.908Z,96900.31
2022-11-18T05:03:37.647Z,96899.53
2022-11-18T05:05:39.465Z,96905.00
2022-11-18T05:07:41.210Z,96905.00
2022-11-18T05:09:46.004Z,96903.38
2022-11-18T05:12:07.952Z,96907.75
2022-11-18T05:14:13.366Z,96913.22
2022-11-18T05:16:15.153Z,96905.00
2022-11-18T05:18:17.132Z,96903.38
2022-11-18T05:20:18.786Z,96911.59
2022-11-18T05:22:20.421Z,96910.78
2022-11-18T05:24:24.164Z,96905.31
2022-11-18T05:26:28.866Z,96909.94
2022-11-18T05:28:30.379Z,96915.44
2022-11-18T05:30:32.132Z,96903.06
2022-11-18T05:32:33.753Z,96910.47
2022-11-18T05:34:39.044Z,96910.47
2022-11-18T05:36:41.039Z,96918.69
2022-11-18T05:38:45.076Z,96911.59
2022-11-18T05:40:55.616Z,96914.31
2022-11-18T05:43:12.275Z,96919.47
2022-11-18T05:45:15.966Z,96922.53
2022-11-18T05:47:18.952Z,96924.16
2022-11-18T05:49:20.961Z,96918.97
2022-11-18T05:51:22.970Z,96925.75
2022-11-18T05:53:25.685Z,96923.03
2022-11-18T05:55:53.627Z,96927.69
2022-11-18T05:57:57.134Z,96928.50
2022-11-18T05:59:58.748Z,96932.84
2022-11-18T06:02:07.624Z,96929.31
2022-11-18T06:04:15.152Z,96941.06
2022-11-18T06:06:23.032Z,96940.25
2022-11-18T06:08:30.935Z,96935.09
2022-11-18T06:10:37.003Z,96933.97
2022-11-18T06:12:44.734Z,96942.16
2022-11-18T06:14:52.765Z,96939.44
2022-11-18T06:16:58.084Z,96947.63
2022-11-18T06:19:01.340Z,96946.53
2022-11-18T06:21:06.513Z,96949.28
2022-11-18T06:23:08.394Z,96955.56
2022-11-18T06:25:09.922Z,96951.19
2022-11-18T06:27:13.054Z,96952.81
2022-11-18T06:29:19.464Z,96958.28
2022-11-18T06:31:23.344Z,96958.56
2022-11-18T06:33:24.919Z,96968.41
2022-11-18T06:35:26.891Z,96971.66
2022-11-18T06:37:28.483Z,96967.28
2022-11-18T06:39:30.110Z,96970.84
2022-11-18T06:41:32.139Z,96972.75
2022-11-18T06:43:41.813Z,96975.47
2022-11-18T06:46:08.731Z,96972.75
2022-11-18T06:48:10.920Z,96978.53
2022-11-18T06:50:12.593Z,96977.72
2022-11-18T06:52:16.683Z,96982.09
2022-11-18T06:54:18.557Z,96978.53
2022-11-18T06:56:21.922Z,96987.56
2022-11-18T06:58:23.660Z,96995.44
2022-11-18T07:00:27.050Z,96991.09
2022-11-18T07:02:28.695Z,96999.31
2022-11-18T07:04:30.418Z,96997.69
2022-11-18T07:06:34.648Z,97004.25
2022-11-18T07:08:37.689Z,97003.97
2022-11-18T07:10:39.347Z,97008.31
2022-11-18T07:12:41.148Z,97003.97
2022-11-18T07:14:42.763Z,97008.31
2022-11-18T07:16:44.488Z,97005.88
2022-11-18T07:18:47.224Z,97013.00
2022-11-18T07:20:49.059Z,97018.47
2022-11-18T07:22:53.939Z,97013.78
2022-11-18T07:24:55.590Z,97020.06
2022-11-18T07:26:57.410Z,97014.59
2022-11-18T07:28:58.834Z,97020.88
2022-11-18T07:31:05.590Z,97020.88
2022-11-18T07:33:07.470Z,97021.69
2022-11-18T07:35:09.619Z,97019.25
2022-11-18T07:37:11.433Z,97023.63
2022-11-18T07:39:13.212Z,97025.53
2022-11-18T07:41:19.190Z,97035.66
2022-11-18T07:43:20.918Z,97027.16
2022-11-18T07:45:23.525Z,97029.91
2022-11-18T07:47:25.142Z,97041.66
2022-11-18T07:49:26.719Z,97043.25
2022-11-18T07:51:30.824Z,97037.28
2022-11-18T07:53:34.080Z,97043.56
2022-11-18T07:55:37.955Z,97041.94
2022-11-18T07:57:41.829Z,97044.38
2022-11-18T07:59:43.407Z,97052.28
2022-11-18T08:01:45.194Z,97050.66
2022-11-18T08:03:49.898Z,97056.13
2022-11-18T08:05:51.595Z,97058.06
2022-11-18T08:07:53.678Z,97055.31
2022-11-18T08:09:55.622Z,97062.41
2022-11-18T08:11:57.572Z,97062.41
2022-11-18T08:13:59.430Z,97059.16
2022-11-18T08:16:05.537Z,97058.06
2022-11-18T08:18:13.369Z,97067.38
2022-11-18T08:20:15.790Z,97061.91
2022-11-18T08:22:20.771Z,97065.75
2022-11-18T08:24:22.966Z,97058.34
2022-11-18T08:26:25.853Z,97067.38
2022-11-18T08:28:27.531Z,97063.00
2022-11-18T08:30:29.399Z,97066.56
2022-11-18T08:32:31.921Z,97062.22
2022-11-18T08:34:33.658Z,97065.75
2022-11-18T08:36:37.364Z,97065.75
2022-11-18T08:38:39.066Z,97066.56
2022-11-18T08:40:48.710Z,97070.09
2022-11-18T08:42:50.699Z,97082.16
2022-11-18T08:44:52.575Z,97082.97
2022-11-18T08:46:54.292Z,97075.56
2022-11-18T08:48:57.903Z,97086.50
2022-11-18T08:51:00.583Z,97084.88
2022-11-18T08:53:02.656Z,97090.34
2022-11-18T08:55:04.923Z,97084.69
2022-11-18T08:57:06.797Z,97094.22
2022-11-18T08:59:08.954Z,97092.31
2022-11-18T09:01:11.256Z,97094.50
2022-11-18T09:03:14.794Z,97091.47
2022-11-18T09:05:16.554Z,97092.59
2022-11-18T09:07:20.168Z,97093.41
2022-11-18T09:09:22.591Z,97099.69
2022-11-18T09:11:26.672Z,97094.22
2022-11-18T09:14:14.416Z,97095.31
2022-11-18T09:15:49.946Z,97097.25
2022-11-18T09:17:51.958Z,97103.53
2022-11-18T09:19:53.674Z,97096.94
2022-11-18T09:21:55.381Z,97097.25
2022-11-18T09:23:57.148Z,97100.50
2022-11-18T09:26:06.950Z,97105.97
2022-11-18T09:28:08.676Z,97109.00
2022-11-18T09:30:10.892Z,97103.84
2022-11-18T09:32:12.673Z,97111.72
2022-11-18T09:34:14.173Z,97116.09
2022-11-18T09:36:19.103Z,97109.00
2022-11-18T09:38:21.062Z,97113.38
2022-11-18T09:40:26.092Z,97120.97
2022-11-18T09:43:06.449Z,97122.06
2022-11-18T09:45:33.713Z,97120.97
2022-11-18T09:47:36.630Z,97120.34
2022-11-18T09:49:44.268Z,97128.88
2022-11-18T09:51:49.242Z,97127.44
2022-11-18T09:53:51.054Z,97132.34
2022-11-18T09:55:54.996Z,97129.31
2022-11-18T09:57:59.258Z,97126.28
2022-11-18T10:00:01.464Z,97133.88
2022-11-18T10:02:23.017Z,97132.75
2022-11-18T10:04:24.683Z,97134.41
2022-11-18T10:06:31.286Z,97136.00
2022-11-18T10:09:02.018Z,97133.75
2022-11-18T10:11:19.137Z,97140.88
2022-11-18T10:13:27.015Z,97134.59
2022-11-18T10:15:51.505Z,97139.78
2022-11-18T10:18:02.213Z,97148.47
2022-11-18T10:20:31.556Z,97141.88
2022-11-18T10:22:48.145Z,97148.16
2022-11-18T10:24:52.800Z,97151.72
2022-11-18T10:26:57.354Z,97149.50
2022-11-18T10:29:01.860Z,97146.47
2022-11-18T10:31:09.320Z,97145.94
2022-11-18T10:33:27.023Z,97152.22
2022-11-18T10:35:38.273Z,97147.25
2022-11-18T10:38:06.128Z,97154.06
2022-11-18T10:40:05.311Z,97156.28
2022-11-18T10:42:19.182Z,97154.38
2022-11-18T10:44:39.401Z,97157.09
2022-11-18T10:46:41.029Z,97158.72
2022-11-18T10:48:42.837Z,97160.84
2022-11-18T10:50:55.439Z,97157.31
2022-11-18T10:52:57.661Z,97156.19
2022-11-18T10:55:09.870Z,97162.47
2022-11-18T10:57:14.436Z,97159.75
2022-11-18T10:59:40.795Z,97159.75
2022-11-18T11:01:42.697Z,97162.97
2022-11-18T11:03:58.326Z,97161.88
2022-11-18T11:06:19.060Z,97157.22
2022-11-18T11:08:37.115Z,97163.38
2022-11-18T11:10:58.533Z,97163.38
2022-11-18T11:13:12.496Z,97157.91
2022-11-18T11:15:20.628Z,97158.44
2022-11-18T11:17:39.313Z,97161.19
2022-11-18T11:19:49.209Z,97144.13
2022-11-18T11:21:51.567Z,97150.91
2022-11-18T11:23:53.358Z,97152.88
2022-11-18T11:28:55.443Z,97164.59
2022-11-18T11:31:06.339Z,97168.16
2022-11-18T11:33:11.397Z,97173.34
2022-11-18T11:35:27.016Z,97160.44
2022-11-18T11:37:58.802Z,97182.88
2022-11-18T11:40:33.636Z,97171.94
2022-11-18T11:43:10.509Z,97175.78
2022-11-18T11:45:34.986Z,97182.06
2022-11-18T11:47:51.949Z,97176.78
2022-11-18T11:50:00.773Z,97177.41
2022-11-18T11:52:12.224Z,97177.91
2022-11-18T11:54:35.808Z,97185.63
2022-11-18T11:56:43.365Z,97190.78
2022-11-18T11:59:03.369Z,97186.13
2022-11-18T12:01:28.154Z,97188.84
2022-11-18T12:03:54.644Z,97192.69
2022-11-18T12:05:56.425Z,97196.25
2022-11-18T12:08:01.644Z,97189.34
2022-11-18T12:10:22.848Z,97194.00
2022-11-18T12:12:44.218Z,97187.63
2022-11-18T12:14:55.892Z,97182.69
2022-11-18T12:17:02.434Z,97191.19
2022-11-18T12:19:19.247Z,97192.31
2022-11-18T12:21:46.068Z,97191.19
2022-11-18T12:24:20.609Z,97189.56
2022-11-18T12:26:43.812Z,97190.38
2022-11-18T12:28:46.142Z,97191.41
2022-11-18T12:30:48.072Z,97182.56
2022-11-18T12:32:56.793Z,97191.56
2022-11-18T12:35:13.625Z,97192.41
2022-11-18T12:37:27.617Z,97189.97
2022-11-18T12:39:29.244Z,97198.69
2022-11-18T12:41:58.532Z,97187.41
2022-11-18T12:44:01.184Z,97187.94
2022-11-18T12:46:02.689Z,97197.28
2022-11-18T12:48:04.709Z,97196.94
2022-11-18T12:50:15.404Z,97205.81
2022-11-18T12:52:31.375Z,97208.53
2022-11-18T12:54:50.807Z,97200.31
2022-11-18T12:56:53.280Z,97197.28
2022-11-18T12:59:00.140Z,97199.41
2022-11-18T13:01:08.134Z,97196.66
2022-11-18T13:03:09.901Z,97204.28
2022-11-18T13:05:20.124Z,97209.44
2022-11-18T13:07:40.454Z,97205.59
2022-11-18T13:09:42.103Z,97207.53
2022-11-18T13:11:50.960Z,97202.53
2022-11-18T13:14:12.595Z,97215.31
2022-11-18T13:16:43.501Z,97210.06
2022-11-18T13:18:53.887Z,97211.03
2022-11-18T13:20:57.870Z,97212.06
2022-11-18T13:23:33.668Z,97215.31
2022-11-18T13:25:36.067Z,97213.41
2022-11-18T13:28:01.650Z,97212.25
2022-11-18T13:30:13.869Z,97216.31
2022-11-18T13:32:27.485Z,97211.66
2022-11-18T13:34:41.368Z,97212.97
2022-11-18T13:36:44.864Z,97220.38
2022-11-18T13:38:56.486Z,97215.72
2022-11-18T13:41:14.976Z,97223.31
2022-11-18T13:43:25.853Z,97219.78
2022-11-18T13:45:29.985Z,97220.59
2022-11-18T13:47:37.537Z,97223.81
2022-11-18T13:49:50.546Z,97222.72
2022-11-18T13:51:52.974Z,97231.44
2022-11-18T13:53:57.879Z,97223.22
2022-11-18T13:56:21.064Z,97225.97
2022-11-18T14:01:12.622Z,97222.09
2022-11-18T14:03:32.532Z,97227.88
2022-11-18T14:05:34.199Z,97229.50
2022-11-18T14:07:36.102Z,97232.25
2022-11-18T14:09:37.701Z,97229.50
2022-11-18T14:11:41.995Z,97223.22
2022-11-18T14:13:54.703Z,97226.78
2022-11-18T14:16:01.531Z,97226.47
2022-11-18T14:18:05.116Z,97235.00
2022-11-18T14:20:09.970Z,97236.41
2022-11-18T14:22:15.501Z,97223.81
2022-11-18T14:24:17.534Z,97234.78
2022-11-18T14:26:38.581Z,97235.38
2022-11-18T14:28:40.262Z,97241.69
2022-11-18T14:30:54.878Z,97240.88
2022-11-18T14:33:26.532Z,97235.22
2022-11-18T14:35:33.393Z,97248.91
2022-11-18T14:37:36.515Z,97250.84
2022-11-18T14:39:38.630Z,97259.06
2022-11-18T14:41:49.830Z,97263.72
2022-11-18T14:43:51.675Z,97264.53
2022-11-18T14:45:58.014Z,97266.25
2022-11-18T14:47:59.984Z,97265.44
2022-11-18T14:50:01.643Z,97263.00
2022-11-18T14:52:04.699Z,97263.81
2022-11-18T14:54:06.359Z,97264.91
2022-11-18T14:56:16.965Z,97260.88
2022-11-18T14:58:19.497Z,97269.41
2022-11-18T15:00:21.442Z,97268.56
2022-11-18T15:02:25.733Z,97268.91
2022-11-18T15:04:31.820Z,97280.13
2022-11-18T15:06:34.060Z,97278.81
2022-11-18T15:08:36.047Z,97282.97
2022-11-18T15:10:40.452Z,97279.44
2022-11-18T15:12:45.407Z,97286.03
2022-11-18T15:14:47.176Z,97288.28
2022-11-18T15:16:48.768Z,97293.53
2022-11-18T15:18:55.948Z,97297.41
2022-11-18T15:20:57.857Z,97300.13
2022-11-18T15:23:02.528Z,97306.72
2022-11-18T15:25:04.897Z,97299.59
2022-11-18T15:27:12.415Z,97296.34
2022-11-18T15:29:29.980Z,97308.44
2022-11-18T15:31:31.611Z,97306.81
2022-11-18T15:33:33.260Z,97302.44
2022-11-18T15:35:35.334Z,97307.41
2022-11-18T15:37:40.111Z,97308.53
2022-11-18T15:39:41.873Z,97306.91
2022-11-18T15:41:44.393Z,97313.78
2022-11-18T15:43:46.149Z,97314.63
2022-11-18T15:45:47.695Z,97319.59
2022-11-18T15:47:52.476Z,97321.78
2022-11-18T15:49:54.281Z,97324.03
2022-11-18T15:51:56.774Z,97328.69
2022-11-18T15:54:01.244Z,97330.91
2022-11-18T15:56:23.991Z,97335.56
2022-11-18T15:58:25.974Z,97337.50
2022-11-18T16:00:28.135Z,97336.69
2022-11-18T16:02:52.015Z,97340.84
2022-11-18T16:04:53.647Z,97339.53
2022-11-18T16:06:56.952Z,97341.44
2022-11-18T16:09:00.553Z,97343.88
2022-11-18T16:11:41.468Z,97349.16
2022-11-18T16:13:46.548Z,97349.75
2022-11-18T16:15:48.663Z,97354.69
2022-11-18T16:17:53.189Z,97353.88
2022-11-18T16:20:00.765Z,97349.50
2022-11-18T16:22:02.889Z,97350.31
2022-11-18T16:24:11.873Z,97345.97
2022-11-18T16:26:13.540Z,97346.56
2022-11-18T16:28:15.868Z,97351.53
2022-11-18T16:30:39.356Z,97358.63
2022-11-18T16:32:40.872Z,97355.69
2022-11-18T16:34:42.622Z,97359.84
2022-11-18T16:36:49.599Z,97362.84
2022-11-18T16:38:54.471Z,97364.56
2022-11-18T16:40:57.673Z,97362.94
2022-11-18T16:43:05.066Z,97365.16
2022-11-18T16:45:07.113Z,97371.72
2022-11-18T16:47:14.164Z,97373.94
2022-11-18T16:49:21.427Z,97370.72
2022-11-18T16:51:28.776Z,97371.53
2022-11-18T16:53:30.455Z,97372.63
2022-11-18T16:55:32.146Z,97377.00
2022-11-18T16:57:33.753Z,97385.47
2022-11-18T16:59:35.411Z,97386.63
2022-11-18T17:01:37.365Z,97392.66
2022-11-18T17:03:41.580Z,97396.00
2022-11-18T17:05:43.312Z,97388.91
2022-11-18T17:07:49.099Z,97372.78
2022-11-18T17:09:51.312Z,97378.56
2022-11-18T17:11:54.428Z,97376.06
2022-11-18T17:13:58.239Z,97386.22
2022-11-18T17:16:06.999Z,97385.69
2022-11-18T17:18:09.225Z,97380.50
2022-11-18T17:20:13.176Z,97382.72
2022-11-18T17:22:14.905Z,97385.75
2022-11-18T17:24:20.978Z,97389.31
2022-11-18T17:26:28.623Z,97390.72
2022-11-18T17:28:31.609Z,97391.84
2022-11-18T17:30:33.584Z,97387.16
2022-11-18T17:32:35.220Z,97394.03
2022-11-18T17:34:37.145Z,97386.63
2022-11-18T17:36:39.110Z,97383.91
2022-11-18T17:38:44.500Z,97403.34
2022-11-18T17:40:53.986Z,97394.84
2022-11-18T17:42:56.016Z,97410.22
2022-11-18T17:44:58.068Z,97420.63
2022-11-18T17:46:59.711Z,97410.00
2022-11-18T17:49:04.586Z,97414.63
2022-11-18T17:51:08.964Z,97425.06
2022-11-18T17:53:11.105Z,97423.72
2022-11-18T17:55:12.713Z,97417.44
2022-11-18T17:57:14.696Z,97419.34
2022-11-18T17:59:17.414Z,97422.91
2022-11-18T18:01:21.543Z,97420.47
2022-11-18T18:03:23.195Z,97427.84
2022-11-18T18:05:25.399Z,97420.47
2022-11-18T18:07:30.385Z,97430.91
2022-11-18T18:09:32.422Z,97426.22
2022-11-18T18:11:34.200Z,97434.22
2022-11-18T18:13:56.212Z,97449.22
2022-11-18T18:16:02.052Z,97449.81
2022-11-18T18:18:04.492Z,97452.22
2022-11-18T18:20:06.719Z,97453.63
2022-11-18T18:22:08.322Z,97452.84
2022-11-18T18:24:11.177Z,97457.47
2022-11-18T18:26:13.136Z,97464.56
2022-11-18T18:28:14.757Z,97461.03
2022-11-18T18:30:16.976Z,97472.25
2022-11-18T18:32:18.601Z,97469.00
2022-11-18T18:34:22.848Z,97472.81
2022-11-18T18:36:25.282Z,97471.72
2022-11-18T18:38:27.863Z,97470.91
2022-11-18T18:40:32.621Z,97470.41
2022-11-18T18:42:34.206Z,97480.81
2022-11-18T18:44:58.545Z,97483.53
2022-11-18T18:47:00.176Z,97479.75
2022-11-18T18:49:08.081Z,97478.13
2022-11-18T18:51:09.757Z,97476.22
2022-11-18T18:53:11.475Z,97479.53
2022-11-18T18:55:13.058Z,97481.75
2022-11-18T18:57:14.574Z,97481.19
2022-11-18T18:59:18.427Z,97487.78
2022-11-18T19:01:21.017Z,97488.88
2022-11-18T19:03:22.834Z,97499.81
2022-11-18T19:05:39.054Z,97508.56
2022-11-18T19:07:46.042Z,97500.16
2022-11-18T19:09:47.634Z,97502.91
2022-11-18T19:12:08.081Z,97508.63
2022-11-18T19:14:12.257Z,97505.69
2022-11-18T19:16:14.068Z,97507.88
2022-11-18T19:18:15.687Z,97499.44
2022-11-18T19:20:48.524Z,97509.03
2022-11-18T19:23:03.480Z,97524.09
2022-11-18T19:25:09.376Z,97520.31
2022-11-18T19:27:11.029Z,97526.03
2022-11-18T19:29:12.662Z,97520.88
2022-11-18T19:31:15.627Z,97521.75
2022-11-18T19:33:17.392Z,97526.66
2022-11-18T19:35:19.689Z,97536.78
2022-11-18T19:37:22.662Z,97537.06
2022-11-18T19:39:25.658Z,97534.88
2022-11-18T19:41:27.334Z,97537.38
2022-11-18T19:43:29.530Z,97542.03
2022-11-18T19:45:31.219Z,97550.53
2022-11-18T19:47:33.139Z,97544.50
2022-11-18T19:49:34.966Z,97541.53
2022-11-18T19:51:37.249Z,97548.66
2022-11-18T19:53:40.848Z,97553.88
2022-11-18T19:55:42.492Z,97559.63
2022-11-18T19:57:45.487Z,97557.75
2022-11-18T19:59:48.682Z,97559.94
2022-11-18T20:01:50.451Z,97562.97
2022-11-18T20:03:54.342Z,97569.00
2022-11-18T20:06:01.820Z,97570.63
2022-11-18T20:08:03.728Z,97580.50
2022-11-18T20:10:09.496Z,97585.44
2022-11-18T20:12:11.154Z,97587.88
2022-11-18T20:14:12.987Z,97588.44
2022-11-18T20:16:18.857Z,97588.97
2022-11-18T20:18:22.301Z,97596.41
2022-11-18T20:20:27.655Z,97591.50
2022-11-18T20:22:36.444Z,97597.81
2022-11-18T20:24:38.797Z,97605.72
2022-11-18T20:26:44.349Z,97611.47
2022-11-18T20:28:54.316Z,97613.41
2022-11-18T20:30:58.627Z,97611.22
2022-11-18T20:33:00.401Z,97613.16
2022-11-18T20:35:01.941Z,97609.63
2022-11-18T20:37:03.937Z,97616.19
2022-11-18T20:39:12.167Z,97628.75
2022-11-18T20:41:13.848Z,97623.03
2022-11-18T20:43:15.853Z,97624.13
2022-11-18T20:45:17.467Z,97629.34
2022-11-18T20:47:19.793Z,97628.25
2022-11-18T20:49:21.486Z,97630.97
2022-11-18T20:51:27.610Z,97623.91
2022-11-18T20:53:29.632Z,97634.84
2022-11-18T20:55:35.866Z,97633.72
2022-11-18T20:57:40.171Z,97656.34
2022-11-18T20:59:42.033Z,97653.63
2022-11-18T21:01:43.875Z,97659.09
2022-11-18T21:03:54.822Z,97656.38
2022-11-18T21:05:56.383Z,97657.72
2022-11-18T21:07:58.590Z,97665.09
2022-11-18T21:10:00.496Z,97674.06
2022-11-18T21:12:03.278Z,97678.44
2022-11-18T21:14:21.880Z,97678.44
2022-11-18T21:16:26.846Z,97690.66
2022-11-18T21:18:29.559Z,97692.28
2022-11-18T21:20:50.473Z,97688.72
2022-11-18T21:22:56.815Z,97684.91
2022-11-18T21:25:02.441Z,97675.06
2022-11-18T21:27:04.827Z,97679.44
2022-11-18T21:29:09.954Z,97687.59
2022-11-18T21:31:11.727Z,97691.13
2022-11-18T21:33:15.863Z,97693.00
2022-11-18T21:35:18.370Z,97691.88
2022-11-18T21:37:23.220Z,97695.16
2022-11-18T21:39:25.606Z,97696.75
2022-11-18T21:41:28.629Z,97701.94
2022-11-18T21:44:03.985Z,97701.63
2022-11-18T21:46:01.059Z,97704.34
2022-11-18T21:48:05.525Z,97708.69
2022-11-18T21:50:07.711Z,97702.13
2022-11-18T21:52:11.748Z,97698.84
2022-11-18T21:54:16.112Z,97705.09
2022-11-18T21:56:21.227Z,97709.16
2022-11-18T21:58:22.789Z,97717.56
2022-11-18T22:00:24.370Z,97710.22
2022-11-18T22:02:29.022Z,97717.81
2022-11-18T22:04:58.419Z,97720.81
2022-11-18T22:07:00.308Z,97721.56
2022-11-18T22:09:09.303Z,97728.13
2022-11-18T22:11:14.003Z,97722.91
2022-11-18T22:13:15.667Z,97732.41
2022-11-18T22:15:19.964Z,97740.03
2022-11-18T22:17:21.824Z,97737.59
2022-11-18T22:19:23.872Z,97738.38
2022-11-18T22:21:28.747Z,97737.78
2022-11-18T22:23:32.040Z,97733.72
2022-11-18T22:25:33.671Z,97733.44
2022-11-18T22:27:35.258Z,97734.78
2022-11-18T22:29:36.968Z,97737.19
2022-11-18T22:31:39.657Z,97743.72
2022-11-18T22:33:41.923Z,97736.63
2022-11-18T22:35:43.618Z,97740.13
2022-11-18T22:37:48.216Z,97740.66
2022-11-18T22:39:50.129Z,97743.38
2022-11-18T22:42:10.356Z,97738.75
2022-11-18T22:44:13.994Z,97745.78
2022-11-18T22:46:15.708Z,97749.00
2022-11-18T22:48:17.782Z,97756.06
2022-11-18T22:50:21.720Z,97747.91
2022-11-18T22:52:23.236Z,97746.25
2022-11-18T22:54:38.756Z,97748.97
2022-11-18T22:56:40.668Z,97740.25
2022-11-18T22:58:42.611Z,97737.81
2022-11-18T23:00:45.396Z,97744.59
2022-11-18T23:02:52.323Z,97755.97
2022-11-18T23:04:53.868Z,97766.84
2022-11-18T23:06:55.406Z,97767.91
2022-11-18T23:08:56.992Z,97769.00
2022-11-18T23:11:07.052Z,97760.03
2022-11-18T23:13:28.897Z,97758.91
2022-11-18T23:15:34.798Z,97763.53
2022-11-18T23:17:36.336Z,97782.53
2022-11-18T23:19:45.738Z,97787.97
2022-11-18T23:21:53.099Z,97790.91
2022-11-18T23:23:54.885Z,97788.16
2022-11-18T23:26:12.720Z,97781.94
2022-11-18T23:28:14.439Z,97787.59
2022-11-18T23:30:16.385Z,97791.41
2022-11-18T23:32:17.920Z,97787.31
2022-11-18T23:34:19.947Z,97786.47
2022-11-18T23:36:22.798Z,97788.66
2022-11-18T23:38:24.310Z,97789.97
2022-11-18T23:40:29.225Z,97789.41
2022-11-18T23:42:31.094Z,97786.13
2022-11-18T23:44:49.215Z,97788.28
2022-11-18T23:46:51.020Z,97803.75
2022-11-18T23:48:52.637Z,97789.88
2022-11-18T23:50:58.411Z,97793.94
2022-11-18T23:52:59.909Z,97794.16
2022-11-18T23:55:01.510Z,97797.13
2022-11-18T23:57:05.207Z,97790.31
2022-11-18T23:59:06.821Z,97791.66
